Time;durP1;ratioP1;P1;durP2;ratioP2;P2;SDS_P1;SDS_P2;PMS_P1;PMS_P2;Temp;Humidity;BMP_temperature;BMP_pressure;BME280_temperature;BME280_humidity;BME280_pressure;Samples;Min_cycle;Max_cycle;Signal;HPM_P1;HPM_P2
2021/10/15 00:02:14;;;;;;;13.15;8.30;;;10.60;99.90;;;;;;5051041;28;20124;-67
2021/10/15 00:04:40;;;;;;;10.27;7.85;;;10.70;99.90;;;;;;5052004;28;20032;-66
2021/10/15 00:07:06;;;;;;;11.93;8.43;;;10.70;99.90;;;;;;5050783;28;20052;-66
2021/10/15 00:09:31;;;;;;;10.38;7.80;;;10.70;99.90;;;;;;5050437;28;20466;-66
2021/10/15 00:11:57;;;;;;;13.05;8.20;;;10.80;99.90;;;;;;5052521;28;20047;-66
2021/10/15 00:14:23;;;;;;;10.98;7.90;;;10.70;99.90;;;;;;5050579;28;20493;-67
2021/10/15 00:16:48;;;;;;;8.82;7.65;;;10.60;99.90;;;;;;5052312;28;20032;-66
2021/10/15 00:19:14;;;;;;;13.73;8.50;;;10.50;99.90;;;;;;5050482;28;20425;-66
2021/10/15 00:21:40;;;;;;;13.38;8.82;;;10.50;99.90;;;;;;5050199;28;20251;-67
2021/10/15 00:24:05;;;;;;;20.13;10.80;;;10.40;99.90;;;;;;5051628;28;20036;-67
2021/10/15 00:26:31;;;;;;;13.63;9.18;;;10.30;99.90;;;;;;5051277;28;20061;-66
2021/10/15 00:28:57;;;;;;;13.95;8.95;;;10.30;99.90;;;;;;5052004;28;20032;-65
2021/10/15 00:31:22;;;;;;;13.77;9.40;;;10.40;99.90;;;;;;5051003;28;20386;-66
2021/10/15 00:33:48;;;;;;;13.80;8.68;;;10.30;99.90;;;;;;5050462;28;20440;-65
2021/10/15 00:36:13;;;;;;;14.52;9.10;;;10.30;99.90;;;;;;5051954;28;20033;-66
2021/10/15 00:38:39;;;;;;;12.30;8.13;;;10.40;99.90;;;;;;5049795;28;20462;-66
2021/10/15 00:41:05;;;;;;;13.68;8.82;;;10.30;99.90;;;;;;5051485;28;20063;-66
2021/10/15 00:43:31;;;;;;;11.55;7.82;;;10.30;99.90;;;;;;5049529;28;20067;-66
2021/10/15 00:45:56;;;;;;;14.00;8.32;;;10.30;99.90;;;;;;5051510;28;20072;-65
2021/10/15 00:48:22;;;;;;;12.05;9.00;;;10.30;99.90;;;;;;5050841;28;20033;-70
2021/10/15 00:50:48;;;;;;;16.23;8.25;;;10.20;99.90;;;;;;5051259;28;20047;-65
2021/10/15 00:53:14;;;;;;;10.68;8.65;;;10.20;99.90;;;;;;5051592;28;20025;-66
2021/10/15 00:55:42;;;;;;;13.50;8.68;;;10.30;99.90;;;;;;5048909;28;20029;-66
2021/10/15 00:58:08;;;;;;;14.05;9.23;;;10.20;99.90;;;;;;5049732;28;20037;-66
2021/10/15 01:00:33;;;;;;;12.10;8.82;;;10.30;99.90;;;;;;5050370;28;20036;-66
2021/10/15 01:02:59;;;;;;;13.30;8.82;;;10.20;99.90;;;;;;5051048;28;20059;-66
2021/10/15 01:05:25;;;;;;;12.82;9.13;;;10.10;99.90;;;;;;5048361;28;20072;-66
2021/10/15 01:07:53;;;;;;;15.50;9.35;;;10.10;99.90;;;;;;5049760;28;20478;-65
2021/10/15 01:10:19;;;;;;;13.65;9.60;;;10.10;99.90;;;;;;5051141;28;20041;-65
2021/10/15 01:12:46;;;;;;;14.27;9.00;;;10.10;99.90;;;;;;5049113;28;20029;-66
2021/10/15 01:15:12;;;;;;;11.20;8.85;;;10.00;99.90;;;;;;5049272;28;20029;-66
2021/10/15 01:17:38;;;;;;;16.65;9.85;;;10.10;99.90;;;;;;5048969;28;20451;-67
2021/10/15 01:20:04;;;;;;;17.08;10.05;;;10.00;99.90;;;;;;5051236;28;20021;-66
2021/10/15 01:22:31;;;;;;;17.90;9.27;;;10.10;99.90;;;;;;5048935;28;20466;-66
2021/10/15 01:24:57;;;;;;;15.35;9.60;;;10.10;99.90;;;;;;5048959;28;20033;-66
2021/10/15 01:27:24;;;;;;;14.82;9.93;;;10.10;99.90;;;;;;5050598;28;20076;-65
2021/10/15 01:29:51;;;;;;;13.05;9.27;;;10.10;99.90;;;;;;5050633;28;20047;-65
2021/10/15 01:32:18;;;;;;;12.82;8.75;;;10.10;99.90;;;;;;5049321;28;20079;-65
2021/10/15 01:34:45;;;;;;;14.13;8.98;;;10.10;99.90;;;;;;5049865;28;20229;-66
2021/10/15 01:37:11;;;;;;;13.10;10.27;;;10.00;99.90;;;;;;5048802;28;20381;-65
2021/10/15 01:39:37;;;;;;;13.00;8.02;;;10.00;99.90;;;;;;5050123;28;20029;-64
2021/10/15 01:42:03;;;;;;;15.68;9.07;;;10.10;99.90;;;;;;5049179;28;20525;-65
2021/10/15 01:44:29;;;;;;;15.85;9.18;;;10.00;99.90;;;;;;5048481;28;20326;-68
2021/10/15 01:46:54;;;;;;;14.23;8.60;;;10.00;99.90;;;;;;5050626;28;20091;-65
2021/10/15 01:49:20;;;;;;;15.15;10.05;;;10.10;99.90;;;;;;5050055;28;20080;-65
2021/10/15 01:51:46;;;;;;;15.85;8.95;;;10.10;99.90;;;;;;5048253;28;20037;-66
2021/10/15 01:54:12;;;;;;;12.30;9.50;;;10.10;99.90;;;;;;5050533;28;20043;-66
2021/10/15 01:56:37;;;;;;;13.05;8.85;;;10.10;99.90;;;;;;5049635;28;20045;-66
2021/10/15 01:59:04;;;;;;;12.40;8.65;;;10.00;99.90;;;;;;5049185;28;20140;-66
2021/10/15 02:01:29;;;;;;;16.70;9.60;;;10.10;99.90;;;;;;5049830;28;20488;-66
2021/10/15 02:03:55;;;;;;;16.00;8.43;;;10.00;99.90;;;;;;5050106;28;20111;-66
2021/10/15 02:06:21;;;;;;;13.48;9.25;;;10.00;99.90;;;;;;5048994;28;20052;-66
2021/10/15 02:08:47;;;;;;;12.23;8.82;;;10.00;99.90;;;;;;5049713;28;20072;-66
2021/10/15 02:11:13;;;;;;;13.80;8.45;;;10.00;99.90;;;;;;5048905;28;20025;-66
2021/10/15 02:13:38;;;;;;;13.63;8.98;;;10.00;99.90;;;;;;5048419;28;20078;-66
2021/10/15 02:16:04;;;;;;;15.57;8.85;;;10.00;99.90;;;;;;5052176;28;20467;-66
2021/10/15 02:18:30;;;;;;;13.60;9.15;;;10.00;99.90;;;;;;5053185;28;20029;-66
2021/10/15 02:20:55;;;;;;;12.88;8.90;;;10.00;99.90;;;;;;5053850;28;20052;-66
2021/10/15 02:23:21;;;;;;;16.63;9.18;;;9.90;99.90;;;;;;5054345;28;20041;-66
2021/10/15 02:25:46;;;;;;;12.45;9.15;;;9.90;99.90;;;;;;5051775;28;20357;-65
2021/10/15 02:28:12;;;;;;;13.90;8.93;;;9.90;99.90;;;;;;5053976;28;20037;-66
2021/10/15 02:30:38;;;;;;;11.05;7.60;;;9.90;99.90;;;;;;5053224;28;20036;-66
2021/10/15 02:33:04;;;;;;;14.13;9.20;;;10.00;99.90;;;;;;5054076;28;20036;-66
2021/10/15 02:35:30;;;;;;;14.73;10.13;;;9.80;99.90;;;;;;5051927;28;20025;-66
2021/10/15 02:38:00;;;;;;;12.90;8.60;;;9.80;99.90;;;;;;5053718;28;20113;-65
2021/10/15 02:40:28;;;;;;;13.73;8.57;;;9.80;99.90;;;;;;5054002;28;20111;-65
2021/10/15 02:42:54;;;;;;;11.02;8.30;;;9.70;99.90;;;;;;5053633;28;20107;-65
2021/10/15 02:45:21;;;;;;;13.23;8.98;;;9.70;99.90;;;;;;5052314;28;20090;-65
2021/10/15 02:47:46;;;;;;;17.63;9.98;;;9.60;99.90;;;;;;5051751;28;20450;-65
2021/10/15 02:50:12;;;;;;;17.08;9.75;;;9.70;99.90;;;;;;5052541;28;20063;-66
2021/10/15 02:52:38;;;;;;;15.18;8.75;;;9.60;99.90;;;;;;5053303;28;20045;-65
2021/10/15 02:55:04;;;;;;;12.52;9.02;;;9.60;99.90;;;;;;5053430;28;20171;-66
2021/10/15 02:57:30;;;;;;;17.83;10.50;;;9.60;99.90;;;;;;5052639;28;20561;-68
2021/10/15 02:59:56;;;;;;;14.38;9.32;;;9.60;99.90;;;;;;5053208;28;20108;-66
2021/10/15 03:02:21;;;;;;;15.95;9.35;;;9.60;99.90;;;;;;5052080;28;20036;-66
2021/10/15 03:04:47;;;;;;;14.40;10.40;;;9.50;99.90;;;;;;5051459;28;20025;-66
2021/10/15 03:07:13;;;;;;;12.85;9.32;;;9.50;99.90;;;;;;5053361;28;20040;-66
2021/10/15 03:09:38;;;;;;;16.08;10.40;;;9.50;99.90;;;;;;5051260;28;20057;-66
2021/10/15 03:12:05;;;;;;;17.90;9.68;;;9.50;99.90;;;;;;5053274;28;20025;-66
2021/10/15 03:14:31;;;;;;;15.32;9.60;;;9.50;99.90;;;;;;5052895;28;20117;-70
2021/10/15 03:16:57;;;;;;;14.18;10.20;;;9.60;99.90;;;;;;5051681;28;20450;-65
2021/10/15 03:19:22;;;;;;;15.38;9.45;;;9.60;99.90;;;;;;5053340;28;20028;-66
2021/10/15 03:21:48;;;;;;;13.05;9.80;;;9.60;99.90;;;;;;5052573;28;20167;-65
2021/10/15 03:24:14;;;;;;;14.20;10.32;;;9.50;99.90;;;;;;5051421;28;20120;-65
2021/10/15 03:26:39;;;;;;;16.35;9.93;;;9.50;99.90;;;;;;5051902;28;20053;-66
2021/10/15 03:29:05;;;;;;;13.52;9.98;;;9.50;99.90;;;;;;5052217;28;20056;-66
2021/10/15 03:31:31;;;;;;;15.48;10.15;;;9.40;99.90;;;;;;5051341;28;20335;-66
2021/10/15 03:33:57;;;;;;;19.83;10.75;;;9.50;99.90;;;;;;5032968;28;20489;-65
2021/10/15 03:36:23;;;;;;;18.35;10.82;;;9.40;99.90;;;;;;5033544;28;20018;-65
2021/10/15 03:38:48;;;;;;;14.30;10.23;;;9.30;99.90;;;;;;5031139;28;20355;-65
2021/10/15 03:41:14;;;;;;;13.90;10.43;;;9.30;99.90;;;;;;5031232;28;20026;-64
2021/10/15 03:43:39;;;;;;;17.13;10.35;;;9.10;99.90;;;;;;5030614;28;20195;-65
2021/10/15 03:46:05;;;;;;;26.08;11.98;;;9.00;99.90;;;;;;5032215;28;20033;-66
2021/10/15 03:48:31;;;;;;;17.52;11.10;;;8.90;99.90;;;;;;5032667;28;20140;-65
2021/10/15 03:50:56;;;;;;;15.27;10.88;;;8.90;99.90;;;;;;5030448;28;20122;-65
2021/10/15 03:53:22;;;;;;;14.07;11.13;;;8.90;99.90;;;;;;5032292;28;20568;-66
2021/10/15 03:55:48;;;;;;;15.07;11.13;;;8.90;99.90;;;;;;5030064;28;20034;-65
2021/10/15 03:58:14;;;;;;;17.70;11.43;;;8.90;99.90;;;;;;5030985;28;20439;-65
2021/10/15 04:00:40;;;;;;;18.52;11.50;;;8.80;99.90;;;;;;5031608;28;20025;-66
2021/10/15 04:03:07;;;;;;;14.70;10.25;;;8.80;99.90;;;;;;5032229;28;20467;-65
2021/10/15 04:05:32;;;;;;;17.83;10.95;;;8.80;99.90;;;;;;5030886;28;20057;-65
2021/10/15 04:07:58;;;;;;;13.77;11.07;;;8.80;99.90;;;;;;5032081;28;20061;-66
2021/10/15 04:10:24;;;;;;;14.40;10.25;;;8.70;99.90;;;;;;5032418;28;20034;-64
2021/10/15 04:12:50;;;;;;;15.27;11.15;;;8.70;99.90;;;;;;5031483;28;20034;-65
2021/10/15 04:15:15;;;;;;;22.58;11.88;;;8.50;99.90;;;;;;5030620;28;20060;-64
2021/10/15 04:17:42;;;;;;;17.17;10.77;;;8.60;99.90;;;;;;5030094;28;20033;-65
2021/10/15 04:20:09;;;;;;;16.83;11.52;;;8.60;99.90;;;;;;5030497;28;20033;-65
2021/10/15 04:22:35;;;;;;;16.90;12.05;;;8.60;99.90;;;;;;5031441;28;20112;-73
2021/10/15 04:25:01;;;;;;;18.58;10.25;;;8.70;99.90;;;;;;5030425;28;20451;-65
2021/10/15 04:27:26;;;;;;;15.38;10.60;;;8.70;99.90;;;;;;5030486;28;20037;-65
2021/10/15 04:29:52;;;;;;;13.00;10.45;;;8.60;99.90;;;;;;5031446;28;20035;-65
2021/10/15 04:32:18;;;;;;;17.23;11.75;;;8.60;99.90;;;;;;5031933;28;20386;-65
2021/10/15 04:34:44;;;;;;;14.82;10.93;;;8.70;99.90;;;;;;5031378;28;20471;-66
2021/10/15 04:37:09;;;;;;;19.65;11.32;;;8.80;99.90;;;;;;5031611;28;20438;-66
2021/10/15 04:39:35;;;;;;;14.23;10.32;;;8.70;99.90;;;;;;5031549;28;20065;-65
2021/10/15 04:42:01;;;;;;;18.63;11.52;;;8.80;99.90;;;;;;5030325;28;20348;-66
2021/10/15 04:44:27;;;;;;;13.75;10.38;;;8.80;99.90;;;;;;5030221;28;20022;-64
2021/10/15 04:46:52;;;;;;;14.00;11.25;;;8.70;99.90;;;;;;5029441;28;20190;-65
2021/10/15 04:49:18;;;;;;;19.85;11.00;;;8.60;99.90;;;;;;5030488;28;20037;-65
2021/10/15 04:51:44;;;;;;;12.43;10.68;;;8.70;99.90;;;;;;5029659;28;20025;-67
2021/10/15 04:54:10;;;;;;;15.27;11.07;;;8.80;99.90;;;;;;5031143;28;20113;-66
2021/10/15 04:56:36;;;;;;;15.52;11.75;;;8.90;99.90;;;;;;5031445;28;20033;-66
2021/10/15 04:59:01;;;;;;;17.05;10.27;;;8.90;99.90;;;;;;5031453;28;20356;-64
2021/10/15 05:01:27;;;;;;;14.90;10.13;;;8.80;99.90;;;;;;5031373;28;20041;-66
2021/10/15 05:03:53;;;;;;;15.13;10.77;;;8.80;99.90;;;;;;5030513;28;20061;-65
2021/10/15 05:06:18;;;;;;;20.92;11.52;;;8.90;99.90;;;;;;5031052;28;20037;-65
2021/10/15 05:09:00;;;;;;;14.85;10.93;;;8.90;99.90;;;;;;5030495;28;20391;-65
2021/10/15 05:11:26;;;;;;;;;;;8.90;99.90;;;;;;5030196;28;20033;-65
2021/10/15 05:13:52;;;;;;;17.55;11.00;;;8.80;99.90;;;;;;5030200;28;19905;-66
2021/10/15 05:16:18;;;;;;;17.92;11.52;;;8.70;99.90;;;;;;5030746;28;20034;-65
2021/10/15 05:18:44;;;;;;;14.13;10.80;;;8.70;99.90;;;;;;5029056;28;20103;-65
2021/10/15 05:21:09;;;;;;;18.98;12.73;;;8.80;99.90;;;;;;5030767;28;20104;-66
2021/10/15 05:23:35;;;;;;;15.75;10.55;;;8.80;99.90;;;;;;5029898;28;20025;-66
2021/10/15 05:26:01;;;;;;;17.85;11.18;;;8.90;99.90;;;;;;5029922;28;20049;-66
2021/10/15 05:28:26;;;;;;;16.60;12.45;;;9.00;99.90;;;;;;5030892;28;20033;-65
2021/10/15 05:30:54;;;;;;;18.35;13.13;;;9.00;99.90;;;;;;5028805;28;20105;-67
2021/10/15 05:33:20;;;;;;;16.55;11.23;;;9.00;99.90;;;;;;5030957;28;20021;-66
2021/10/15 05:35:45;;;;;;;16.33;12.10;;;9.10;99.90;;;;;;5029777;28;20026;-66
2021/10/15 05:38:11;;;;;;;22.17;11.27;;;9.10;99.90;;;;;;5030791;28;20102;-66
2021/10/15 05:40:37;;;;;;;16.13;12.18;;;9.10;99.90;;;;;;5030840;28;20104;-66
2021/10/15 05:43:02;;;;;;;19.20;13.55;;;9.10;99.90;;;;;;5030412;28;20033;-65
2021/10/15 05:45:28;;;;;;;21.45;14.30;;;9.00;99.90;;;;;;5030870;28;20036;-66
2021/10/15 05:47:53;;;;;;;20.75;14.32;;;9.00;99.90;;;;;;5028697;28;20569;-65
2021/10/15 05:50:19;;;;;;;19.50;14.90;;;8.90;99.90;;;;;;5029943;28;20032;-65
2021/10/15 05:52:48;;;;;;;25.02;14.55;;;9.00;99.90;;;;;;5028656;28;20035;-67
2021/10/15 06:00:26;;;;;;;23.98;15.02;;;9.00;99.90;;;;;;5030753;28;20036;-66
2021/10/15 06:02:52;;;;;;;21.67;14.60;;;9.00;99.90;;;;;;5029919;28;20032;-66
2021/10/15 06:16:17;;;;;;;25.42;15.82;;;8.90;99.90;;;;;;5030692;28;20095;-65
2021/10/15 06:18:51;;;;;;;23.77;15.65;;;8.90;99.90;;;;;;5028302;28;20120;-68
2021/10/15 06:21:17;;;;;;;22.92;15.48;;;8.80;99.90;;;;;;5028865;28;20071;-66
2021/10/15 06:23:43;;;;;;;25.13;16.67;;;8.80;99.90;;;;;;5029641;28;20049;-67
2021/10/15 06:26:08;;;;;;;23.52;15.60;;;8.80;99.90;;;;;;5030168;28;20136;-66
2021/10/15 06:28:34;;;;;;;24.70;14.82;;;8.90;99.90;;;;;;5028756;28;20033;-66
2021/10/15 06:31:00;;;;;;;25.30;16.10;;;8.80;99.90;;;;;;5028207;28;20534;-66
2021/10/15 06:33:25;;;;;;;25.02;15.35;;;8.80;99.90;;;;;;5030230;28;20029;-66
2021/10/15 06:35:51;;;;;;;21.48;13.70;;;8.80;99.90;;;;;;5028204;28;20033;-66
2021/10/15 06:38:16;;;;;;;25.20;16.45;;;8.90;99.90;;;;;;5030021;28;20033;-67
2021/10/15 06:40:42;;;;;;;25.35;14.63;;;8.90;99.90;;;;;;5028457;28;20036;-66
2021/10/15 06:43:09;;;;;;;25.70;15.02;;;8.90;99.90;;;;;;5030143;28;20037;-66
2021/10/15 06:45:36;;;;;;;30.58;15.27;;;8.80;99.90;;;;;;5030269;28;20025;-66
2021/10/15 06:48:02;;;;;;;19.40;14.63;;;8.80;99.90;;;;;;5028020;28;20025;-65
2021/10/15 06:50:27;;;;;;;23.98;15.20;;;8.80;99.90;;;;;;5028687;28;20033;-65
2021/10/15 06:52:53;;;;;;;22.63;14.30;;;8.80;99.90;;;;;;5027980;28;20088;-65
2021/10/15 06:55:21;;;;;;;23.00;15.20;;;8.80;99.90;;;;;;5028071;28;20071;-66
2021/10/15 06:57:47;;;;;;;20.80;14.85;;;8.90;99.90;;;;;;5027980;28;20044;-66
2021/10/15 07:00:15;;;;;;;21.40;15.43;;;9.00;99.90;;;;;;5028508;28;20037;-66
2021/10/15 07:02:41;;;;;;;23.02;14.63;;;8.90;99.90;;;;;;5030923;28;20068;-66
2021/10/15 07:05:08;;;;;;;24.50;15.18;;;8.90;99.90;;;;;;5032764;28;20034;-66
2021/10/15 07:07:34;;;;;;;24.55;15.15;;;8.90;99.90;;;;;;5033573;28;20030;-67
2021/10/15 07:10:00;;;;;;;28.48;15.73;;;8.80;99.90;;;;;;5032933;28;20485;-66
2021/10/15 07:12:46;;;;;;;22.27;14.50;;;8.90;99.90;;;;;;5033494;28;20128;-66
2021/10/15 07:15:14;;;;;;;28.05;15.73;;;8.90;99.90;;;;;;5033212;28;20081;-65
2021/10/15 07:17:40;;;;;;;21.23;14.90;;;8.90;99.90;;;;;;5033030;28;20052;-66
2021/10/15 07:20:08;;;;;;;23.17;14.52;;;8.90;99.90;;;;;;5031334;28;20033;-66
2021/10/15 07:22:33;;;;;;;22.40;13.45;;;8.90;99.90;;;;;;5032918;28;20056;-65
2021/10/15 07:24:59;;;;;;;17.75;13.43;;;9.00;99.90;;;;;;5032475;28;20399;-65
2021/10/15 07:27:26;;;;;;;18.02;13.68;;;8.80;99.90;;;;;;5031715;28;20034;-66
2021/10/15 07:29:51;;;;;;;19.13;13.18;;;8.80;99.90;;;;;;5031029;28;20029;-66
2021/10/15 07:32:18;;;;;;;18.90;13.63;;;8.60;99.90;;;;;;5031342;28;20180;-66
2021/10/15 07:34:43;;;;;;;20.98;14.65;;;8.60;99.90;;;;;;5031224;28;20063;-64
2021/10/15 07:37:09;;;;;;;17.33;13.55;;;8.70;99.90;;;;;;5031973;28;20102;-65
2021/10/15 07:39:35;;;;;;;19.48;14.65;;;8.70;99.90;;;;;;5031231;28;20080;-65
2021/10/15 07:42:01;;;;;;;17.83;13.70;;;8.70;99.90;;;;;;5030787;28;20426;-66
2021/10/15 07:44:26;;;;;;;20.52;16.52;;;8.60;99.90;;;;;;5031467;28;20047;-65
2021/10/15 07:46:52;;;;;;;21.13;15.00;;;8.50;99.90;;;;;;5030634;28;20402;-66
2021/10/15 07:49:19;;;;;;;20.10;15.80;;;8.60;99.90;;;;;;5031130;28;20067;-65
2021/10/15 07:51:45;;;;;;;20.73;15.95;;;8.70;99.90;;;;;;5032414;28;20142;-66
2021/10/15 07:54:11;;;;;;;22.63;15.32;;;8.70;99.90;;;;;;5029755;28;20093;-66
2021/10/15 07:56:37;;;;;;;23.23;16.02;;;8.80;99.90;;;;;;5031215;28;20056;-65
2021/10/15 07:59:03;;;;;;;19.40;14.73;;;8.90;99.90;;;;;;5032141;28;20061;-65
2021/10/15 08:01:29;;;;;;;19.42;15.13;;;9.00;99.90;;;;;;5032342;28;20033;-65
2021/10/15 08:03:55;;;;;;;18.80;15.32;;;8.90;99.90;;;;;;5030224;28;20063;-66
2021/10/15 08:06:22;;;;;;;19.02;13.65;;;9.10;99.90;;;;;;5031054;28;20192;-66
2021/10/15 08:08:51;;;;;;;17.08;12.10;;;9.30;99.90;;;;;;5030904;28;20034;-74
2021/10/15 08:11:17;;;;;;;15.30;11.82;;;9.30;99.90;;;;;;5030735;28;20025;-65
2021/10/15 08:13:42;;;;;;;18.25;11.80;;;9.60;99.90;;;;;;5037688;28;20036;-67
2021/10/15 08:16:09;;;;;;;16.67;11.77;;;9.90;99.90;;;;;;5046654;28;20055;-66
2021/10/15 08:18:35;;;;;;;14.88;11.07;;;10.00;99.90;;;;;;5050530;28;20047;-65
2021/10/15 08:21:02;;;;;;;20.38;10.80;;;10.30;99.90;;;;;;5048763;28;20017;-65
2021/10/15 08:23:30;;;;;;;15.52;10.13;;;10.50;99.90;;;;;;5048894;28;20028;-66
2021/10/15 08:25:57;;;;;;;14.65;9.57;;;10.70;99.90;;;;;;5049499;28;20060;-66
2021/10/15 08:28:24;;;;;;;13.52;9.48;;;10.80;99.90;;;;;;5048747;28;20128;-66
2021/10/15 08:30:50;;;;;;;18.48;11.38;;;11.40;99.90;;;;;;5047493;28;20028;-68
2021/10/15 08:33:16;;;;;;;18.60;10.30;;;11.80;99.90;;;;;;5049110;28;20085;-65
2021/10/15 08:35:41;;;;;;;14.77;9.90;;;12.20;99.90;;;;;;5049201;28;20083;-65
2021/10/15 08:38:07;;;;;;;16.73;10.45;;;12.70;99.90;;;;;;5050064;28;20043;-65
2021/10/15 08:40:33;;;;;;;40.33;14.23;;;12.70;99.90;;;;;;5047898;28;20017;-68
2021/10/15 08:42:59;;;;;;;18.73;9.65;;;12.90;99.90;;;;;;5046112;28;20060;-65
2021/10/15 08:45:30;;;;;;;12.23;9.70;;;12.90;99.90;;;;;;5047012;28;20044;-64
2021/10/15 08:47:56;;;;;;;12.02;9.38;;;12.70;99.90;;;;;;5046022;28;20413;-67
2021/10/15 08:50:23;;;;;;;13.65;10.27;;;12.50;99.90;;;;;;5049845;28;20449;-67
2021/10/15 08:52:50;;;;;;;13.25;10.45;;;12.40;99.90;;;;;;5049908;28;20124;-76
2021/10/15 08:55:16;;;;;;;13.93;9.73;;;12.40;99.90;;;;;;5048245;28;20082;-65
2021/10/15 08:57:50;;;;;;;15.45;9.73;;;12.30;99.90;;;;;;5049579;28;20037;-66
2021/10/15 09:00:22;;;;;;;15.52;10.15;;;12.30;99.90;;;;;;5050964;28;20470;-66
2021/10/15 09:03:08;;;;;;;17.02;10.48;;;12.20;99.90;;;;;;5054906;28;20025;-65
2021/10/15 09:05:34;;;;;;;18.33;9.32;;;12.40;99.90;;;;;;5058937;28;20053;-65
2021/10/15 09:08:01;;;;;;;13.15;10.45;;;12.30;99.90;;;;;;5055642;28;20051;-66
2021/10/15 09:10:30;;;;;;;13.45;10.40;;;12.10;99.90;;;;;;5057008;28;20029;-69
2021/10/15 09:12:58;;;;;;;16.17;10.05;;;11.80;99.90;;;;;;5049406;28;20037;-64
2021/10/15 09:15:34;;;;;;;21.50;11.68;;;12.00;99.90;;;;;;5050579;28;20025;-64
2021/10/15 09:18:10;;;;;;;16.00;10.38;;;11.80;99.90;;;;;;5050300;28;20029;-65
2021/10/15 09:20:35;;;;;;;13.15;10.68;;;11.80;99.90;;;;;;5049187;28;20445;-64
2021/10/15 09:23:02;;;;;;;15.30;11.77;;;11.60;99.90;;;;;;5050018;28;20543;-64
2021/10/15 09:25:36;;;;;;;22.00;11.40;;;11.60;99.90;;;;;;5048363;28;20135;-65
2021/10/15 09:28:12;;;;;;;18.40;11.25;;;11.60;99.90;;;;;;5048738;28;20053;-64
2021/10/15 09:30:40;;;;;;;16.85;12.38;;;11.70;99.90;;;;;;5049468;28;20387;-64
2021/10/15 09:33:07;;;;;;;18.92;11.52;;;11.80;99.90;;;;;;5049818;28;20098;-64
2021/10/15 09:35:33;;;;;;;15.32;11.43;;;11.70;99.90;;;;;;5049436;28;20434;-65
2021/10/15 09:38:05;;;;;;;18.40;11.63;;;11.80;99.90;;;;;;5048377;28;20124;-65
2021/10/15 09:40:39;;;;;;;;;;;11.80;99.90;;;;;;5049772;28;20178;-65
2021/10/15 09:43:06;;;;;;;12.73;10.80;;;11.80;99.90;;;;;;5049836;28;19912;-64
2021/10/15 09:45:46;;;;;;;13.77;10.90;;;11.60;99.90;;;;;;5050000;28;20021;-65
2021/10/15 09:48:24;;;;;;;16.15;11.68;;;11.60;99.90;;;;;;5048449;28;20446;-64
2021/10/15 09:51:14;;;;;;;21.08;13.02;;;11.50;99.90;;;;;;5050438;28;20080;-64
2021/10/15 09:53:42;;;;;;;14.07;10.10;;;11.40;99.90;;;;;;5050241;28;20020;-65
2021/10/15 09:56:07;;;;;;;18.90;11.68;;;11.30;99.90;;;;;;5049802;28;20068;-64
2021/10/15 09:58:33;;;;;;;15.85;10.93;;;11.30;99.90;;;;;;5049116;28;20068;-65
2021/10/15 10:00:59;;;;;;;20.35;11.50;;;11.40;99.90;;;;;;5049292;28;20152;-65
2021/10/15 10:03:28;;;;;;;14.52;9.98;;;11.30;99.90;;;;;;5048916;28;20029;-64
2021/10/15 10:05:54;;;;;;;14.23;10.23;;;11.40;99.90;;;;;;5049711;28;20097;-65
2021/10/15 10:08:20;;;;;;;17.83;10.95;;;11.40;99.90;;;;;;5048677;28;20037;-64
2021/10/15 10:10:47;;;;;;;20.35;11.70;;;11.50;99.90;;;;;;5048437;28;20079;-65
2021/10/15 10:13:14;;;;;;;17.40;10.38;;;11.60;99.90;;;;;;5047860;28;20045;-65
2021/10/15 10:15:42;;;;;;;14.25;9.68;;;11.80;99.90;;;;;;5049759;28;20090;-64
2021/10/15 10:18:27;;;;;;;17.58;11.75;;;11.90;99.90;;;;;;5048173;28;20415;-65
2021/10/15 10:21:18;;;;;;;14.60;10.15;;;11.90;99.90;;;;;;5049455;28;20106;-72
2021/10/15 10:24:00;;;;;;;13.20;10.25;;;12.00;99.90;;;;;;5048642;28;20309;-64
2021/10/15 10:26:26;;;;;;;15.00;9.95;;;12.30;99.90;;;;;;5049816;28;20052;-63
2021/10/15 10:29:03;;;;;;;14.52;10.23;;;12.30;99.90;;;;;;5048472;28;20041;-64
2021/10/15 10:31:30;;;;;;;16.17;10.38;;;12.40;99.90;;;;;;5048334;28;20389;-65
2021/10/15 10:34:01;;;;;;;14.95;9.45;;;12.40;99.90;;;;;;5047731;28;20451;-65
2021/10/15 10:36:30;;;;;;;15.40;9.20;;;12.70;99.90;;;;;;5050339;28;20028;-64
2021/10/15 10:38:56;;;;;;;11.32;9.48;;;12.70;99.90;;;;;;5051005;28;20037;-65
2021/10/15 10:41:29;;;;;;;16.92;10.18;;;12.80;99.90;;;;;;5052224;28;20029;-64
2021/10/15 10:44:09;;;;;;;12.75;8.52;;;13.10;99.90;;;;;;5051504;28;20028;-65
2021/10/15 10:46:36;;;;;;;16.70;9.13;;;13.30;99.90;;;;;;5052374;28;20090;-65
2021/10/15 10:49:02;;;;;;;13.40;8.48;;;13.30;99.90;;;;;;5052811;28;20454;-64
2021/10/15 10:51:32;;;;;;;13.40;8.45;;;13.50;99.90;;;;;;5052038;28;20223;-65
2021/10/15 10:54:08;;;;;;;15.13;8.13;;;13.60;99.90;;;;;;5051380;28;20128;-64
2021/10/15 10:56:39;;;;;;;15.20;8.18;;;13.50;99.90;;;;;;5052096;28;20110;-64
2021/10/15 10:59:20;;;;;;;17.10;8.00;;;13.70;99.90;;;;;;5052783;28;20029;-65
2021/10/15 11:01:48;;;;;;;14.25;8.43;;;14.00;99.90;;;;;;5053223;28;20405;-64
2021/10/15 11:04:33;;;;;;;11.85;8.20;;;14.70;99.90;;;;;;5052939;28;20083;-64
2021/10/15 11:07:07;;;;;;;14.55;7.82;;;15.50;99.90;;;;;;5052829;28;20048;-64
2021/10/15 11:09:42;;;;;;;18.40;9.38;;;15.30;99.90;;;;;;5051642;28;20051;-64
2021/10/15 11:12:10;;;;;;;13.07;8.52;;;15.10;99.90;;;;;;5052273;28;20029;-64
2021/10/15 11:14:57;;;;;;;12.35;7.22;;;14.80;99.90;;;;;;5051337;28;20025;-65
2021/10/15 11:17:32;;;;;;;22.13;9.82;;;15.10;99.90;;;;;;5050918;28;20482;-65
2021/10/15 11:20:10;;;;;;;15.98;6.88;;;15.40;99.90;;;;;;5050889;28;20029;-66
2021/10/15 11:22:37;;;;;;;12.70;7.63;;;16.00;99.90;;;;;;5052816;28;20106;-66
2021/10/15 11:25:05;;;;;;;11.82;7.38;;;16.10;99.90;;;;;;5051162;28;20045;-65
2021/10/15 11:27:31;;;;;;;10.05;6.55;;;16.30;99.90;;;;;;5052438;28;20040;-65
2021/10/15 11:29:58;;;;;;;11.27;7.07;;;16.40;99.90;;;;;;5050871;28;20415;-72
2021/10/15 11:32:51;;;;;;;11.00;6.85;;;16.50;99.90;;;;;;5050766;28;20043;-65
2021/10/15 11:35:23;;;;;;;8.98;6.30;;;16.60;99.90;;;;;;5048413;28;20593;-65
2021/10/15 11:37:50;;;;;;;11.40;6.78;;;16.70;99.90;;;;;;5051316;28;20417;-65
2021/10/15 11:40:27;;;;;;;7.32;6.15;;;16.50;99.90;;;;;;5050893;28;20035;-64
2021/10/15 11:42:55;;;;;;;14.85;7.35;;;16.50;99.90;;;;;;5050703;28;20029;-65
2021/10/15 11:45:24;;;;;;;9.93;5.95;;;16.40;99.90;;;;;;5052183;28;20037;-65
2021/10/15 11:48:18;;;;;;;11.20;7.00;;;15.90;99.90;;;;;;5050296;28;20041;-64
2021/10/15 11:50:49;;;;;;;11.80;6.60;;;15.50;99.90;;;;;;5050941;28;20041;-67
2021/10/15 11:53:27;;;;;;;10.27;6.43;;;15.40;99.90;;;;;;5052001;28;20020;-66
2021/10/15 11:55:54;;;;;;;12.63;6.40;;;15.10;99.90;;;;;;5050677;28;20036;-65
2021/10/15 11:58:37;;;;;;;13.15;6.93;;;14.80;99.90;;;;;;5050433;28;20044;-65
2021/10/15 12:01:12;;;;;;;14.00;7.60;;;14.70;99.90;;;;;;5051490;28;20017;-65
2021/10/15 12:03:52;;;;;;;12.68;6.97;;;14.70;99.90;;;;;;5052055;28;20029;-65
2021/10/15 12:06:43;;;;;;;9.35;7.22;;;15.00;99.90;;;;;;5051762;28;20376;-65
2021/10/15 12:09:12;;;;;;;8.20;5.80;;;15.20;99.90;;;;;;5049367;28;20028;-66
2021/10/15 12:14:17;;;;;;;14.27;6.97;;;15.50;99.90;;;;;;5051275;28;20029;-67
2021/10/15 12:16:54;;;;;;;12.15;6.57;;;15.70;99.90;;;;;;5051862;28;20029;-65
2021/10/15 12:19:27;;;;;;;14.30;6.47;;;15.80;99.90;;;;;;5050090;28;20040;-65
2021/10/15 12:21:55;;;;;;;9.77;6.55;;;15.90;99.90;;;;;;5049876;28;20097;-65
2021/10/15 12:24:44;;;;;;;9.75;5.85;;;16.00;99.90;;;;;;5050472;28;20340;-65
2021/10/15 12:27:18;;;;;;;9.60;6.30;;;16.00;99.90;;;;;;5049198;28;20041;-65
2021/10/15 12:29:59;;;;;;;9.82;6.40;;;16.10;99.90;;;;;;5049881;28;20053;-66
2021/10/15 12:32:27;;;;;;;10.85;5.50;;;16.20;99.90;;;;;;5049024;28;20029;-64
2021/10/15 12:35:07;;;;;;;10.05;6.30;;;16.20;99.90;;;;;;5050509;28;20075;-66
2021/10/15 12:37:41;;;;;;;12.82;6.30;;;16.00;99.90;;;;;;5051386;28;20108;-65
2021/10/15 12:40:29;;;;;;;9.75;5.57;;;15.70;99.90;;;;;;5049381;28;20025;-68
2021/10/15 12:42:55;;;;;;;13.02;6.50;;;15.50;99.90;;;;;;5049782;28;20021;-66
2021/10/15 12:45:25;;;;;;;8.80;5.90;;;15.40;99.90;;;;;;5050324;28;20189;-65
2021/10/15 12:48:04;;;;;;;6.95;5.68;;;15.40;99.90;;;;;;5051350;28;20040;-65
2021/10/15 12:50:34;;;;;;;9.00;6.40;;;15.40;99.90;;;;;;5049764;28;20033;-66
2021/10/15 12:53:11;;;;;;;9.95;5.80;;;15.40;99.90;;;;;;5050938;28;20516;-65
2021/10/15 12:55:47;;;;;;;9.80;6.00;;;15.30;99.90;;;;;;5049544;28;20478;-65
2021/10/15 12:58:12;;;;;;;14.38;6.68;;;15.30;99.90;;;;;;5049118;28;20438;-65
2021/10/15 13:00:55;;;;;;;9.45;6.00;;;15.30;99.90;;;;;;5050443;28;20029;-66
2021/10/15 13:03:21;;;;;;;12.85;5.93;;;15.20;99.90;;;;;;5048787;28;20463;-65